Time;durP1;ratioP1;P1;durP2;ratioP2;P2;SDS_P1;SDS_P2;PMS_P1;PMS_P2;Temp;Humidity;BMP_temperature;BMP_pressure;BME280_temperature;BME280_humidity;BME280_pressure;Samples;Min_cycle;Max_cycle;Signal;HPM_P1;HPM_P2
2023/10/03 00:00:49;;;;;;;57.27;28.83;;;;;;;;;;5067505;28;20060;-60
2023/10/03 00:03:16;;;;;;;54.40;28.67;;;;;;;;;;5067781;28;20056;-60
2023/10/03 00:05:45;;;;;;;49.00;28.17;;;;;;;;;;5067767;28;20516;-59
2023/10/03 00:08:11;;;;;;;58.03;29.80;;;;;;;;;;5067068;28;20117;-60
2023/10/03 00:10:40;;;;;;;52.57;27.97;;;;;;;;;;5067428;28;20468;-59
2023/10/03 00:13:11;;;;;;;47.13;26.70;;;;;;;;;;5067435;28;20465;-60
2023/10/03 00:15:44;;;;;;;48.43;26.17;;;;;;;;;;5067270;28;20049;-60
2023/10/03 00:18:11;;;;;;;56.60;28.83;;;;;;;;;;5066548;28;20044;-59
2023/10/03 00:20:37;;;;;;;51.67;26.77;;;;;;;;;;5067440;28;20088;-59
2023/10/03 00:23:04;;;;;;;57.73;27.20;;;;;;;;;;5067517;28;20083;-59
2023/10/03 00:25:30;;;;;;;48.73;27.20;;;;;;;;;;5067061;28;20052;-60
2023/10/03 00:28:00;;;;;;;50.30;25.80;;;;;;;;;;5067118;28;20207;-59
2023/10/03 00:30:28;;;;;;;47.07;26.77;;;;;;;;;;5066886;28;20499;-60
2023/10/03 00:32:57;;;;;;;52.67;25.90;;;;;;;;;;5067248;28;20086;-59
2023/10/03 00:35:24;;;;;;;47.03;25.33;;;;;;;;;;5068876;28;20499;-59
2023/10/03 00:37:52;;;;;;;46.30;25.80;;;;;;;;;;5070302;28;20109;-59
2023/10/03 00:42:51;;;;;;;48.03;25.23;;;;;;;;;;5070607;28;20164;-59
2023/10/03 00:45:25;;;;;;;44.20;25.23;;;;;;;;;;5070968;28;21070;-59
2023/10/03 00:47:53;;;;;;;44.67;22.93;;;;;;;;;;5070157;28;20135;-59
2023/10/03 00:50:20;;;;;;;45.43;25.10;;;;;;;;;;5070816;28;20056;-59
2023/10/03 00:52:55;;;;;;;43.27;23.70;;;;;;;;;;5070706;28;20053;-60
2023/10/03 00:55:30;;;;;;;43.83;24.40;;;;;;;;;;5070321;28;20396;-59
2023/10/03 00:58:07;;;;;;;42.03;22.53;;;;;;;;;;5070599;28;20105;-60
2023/10/03 01:00:37;;;;;;;39.03;22.47;;;;;;;;;;5070434;28;20052;-59
2023/10/03 01:03:03;;;;;;;41.63;22.47;;;;;;;;;;5070574;28;20113;-59
2023/10/03 01:05:29;;;;;;;41.10;21.70;;;;;;;;;;5070457;28;20076;-60
2023/10/03 01:07:55;;;;;;;36.67;20.37;;;;;;;;;;5069916;28;20109;-60
2023/10/03 01:10:21;;;;;;;37.77;20.83;;;;;;;;;;5070375;28;20040;-60
2023/10/03 01:12:49;;;;;;;36.57;19.47;;;;;;;;;;5070231;28;20037;-59
2023/10/03 01:15:16;;;;;;;33.43;18.73;;;;;;;;;;5069504;28;20078;-59
2023/10/03 01:17:46;;;;;;;38.97;19.70;;;;;;;;;;5070021;28;20376;-59
2023/10/03 01:20:17;;;;;;;37.70;18.93;;;;;;;;;;5069851;28;20143;-59
2023/10/03 01:22:50;;;;;;;37.13;19.40;;;;;;;;;;5070515;28;20497;-59
2023/10/03 01:25:16;;;;;;;36.05;19.17;;;;;;;;;;5070243;28;20086;-59
2023/10/03 01:27:42;;;;;;;36.03;19.10;;;;;;;;;;5069572;28;20516;-59
2023/10/03 01:30:10;;;;;;;36.87;19.30;;;;;;;;;;5069919;28;20123;-59
2023/10/03 01:32:38;;;;;;;37.27;19.83;;;;;;;;;;5069841;28;20052;-59
2023/10/03 01:35:08;;;;;;;35.70;19.20;;;;;;;;;;5069851;28;20036;-59
2023/10/03 01:37:33;;;;;;;39.93;19.67;;;;;;;;;;5069216;28;20091;-59
2023/10/03 01:39:59;;;;;;;34.73;19.73;;;;;;;;;;5069756;28;20127;-59
2023/10/03 01:42:25;;;;;;;34.53;18.23;;;;;;;;;;5069655;28;20043;-60
2023/10/03 01:44:51;;;;;;;36.80;19.23;;;;;;;;;;5069634;28;20531;-59
2023/10/03 01:47:18;;;;;;;37.20;19.80;;;;;;;;;;5068531;28;20059;-59
2023/10/03 01:49:44;;;;;;;41.27;18.93;;;;;;;;;;5069453;28;20075;-59
2023/10/03 01:52:10;;;;;;;36.57;19.13;;;;;;;;;;5069013;28;20036;-59
2023/10/03 01:54:36;;;;;;;38.57;19.10;;;;;;;;;;5069221;28;20477;-59
2023/10/03 01:57:02;;;;;;;39.47;19.53;;;;;;;;;;5069368;28;20080;-60
2023/10/03 01:59:28;;;;;;;36.67;20.20;;;;;;;;;;5069247;28;20098;-59
2023/10/03 02:01:54;;;;;;;38.07;19.43;;;;;;;;;;5069365;28;20036;-60
2023/10/03 02:04:20;;;;;;;41.63;20.27;;;;;;;;;;5069508;28;20080;-59
2023/10/03 02:06:46;;;;;;;37.43;19.33;;;;;;;;;;5067316;28;20428;-59
2023/10/03 02:09:12;;;;;;;33.97;17.53;;;;;;;;;;5069210;28;20051;-59
2023/10/03 02:11:38;;;;;;;35.97;19.07;;;;;;;;;;5069023;28;20091;-60
2023/10/03 02:14:07;;;;;;;36.90;19.07;;;;;;;;;;5068624;28;20517;-60
2023/10/03 02:16:40;;;;;;;41.13;19.17;;;;;;;;;;5068743;28;20167;-59
2023/10/03 02:19:06;;;;;;;37.33;19.55;;;;;;;;;;5069246;28;20059;-59
2023/10/03 02:21:32;;;;;;;40.07;19.30;;;;;;;;;;5068879;28;20132;-60
2023/10/03 02:23:58;;;;;;;38.03;19.17;;;;;;;;;;5068789;28;20044;-60
2023/10/03 02:26:28;;;;;;;37.30;20.07;;;;;;;;;;5068709;28;20045;-59
2023/10/03 02:28:54;;;;;;;36.77;18.30;;;;;;;;;;5067921;28;20059;-60
2023/10/03 02:31:20;;;;;;;39.20;19.93;;;;;;;;;;5068521;28;21069;-60
2023/10/03 02:33:47;;;;;;;43.40;21.00;;;;;;;;;;5068922;28;20052;-59
2023/10/03 02:36:15;;;;;;;36.23;19.33;;;;;;;;;;5068792;28;20078;-60
2023/10/03 02:38:41;;;;;;;38.20;18.97;;;;;;;;;;5067637;28;20494;-60
2023/10/03 02:41:07;;;;;;;38.63;19.07;;;;;;;;;;5068642;28;20028;-59
2023/10/03 02:43:34;;;;;;;37.03;18.60;;;;;;;;;;5068527;28;20055;-59
2023/10/03 02:46:03;;;;;;;37.53;18.57;;;;;;;;;;5068168;28;20487;-59
2023/10/03 02:48:29;;;;;;;35.27;18.23;;;;;;;;;;5068441;28;20080;-59
2023/10/03 02:50:55;;;;;;;37.13;17.47;;;;;;;;;;5067620;28;20094;-59
2023/10/03 02:53:21;;;;;;;38.77;18.27;;;;;;;;;;5068327;28;20045;-59
2023/10/03 02:55:51;;;;;;;33.37;17.83;;;;;;;;;;5068167;28;20086;-59
2023/10/03 02:58:17;;;;;;;37.60;18.57;;;;;;;;;;5068255;28;20072;-59
2023/10/03 03:00:46;;;;;;;38.37;19.70;;;;;;;;;;5068152;28;20071;-59
2023/10/03 03:03:12;;;;;;;34.67;17.83;;;;;;;;;;5068327;28;20494;-59
2023/10/03 03:05:38;;;;;;;36.73;17.30;;;;;;;;;;5067610;28;20047;-59
2023/10/03 03:08:22;;;;;;;35.93;17.97;;;;;;;;;;5067985;28;20051;-60
2023/10/03 03:10:51;;;;;;;31.63;17.27;;;;;;;;;;5068127;28;20037;-59
2023/10/03 03:13:17;;;;;;;39.30;18.53;;;;;;;;;;5067858;28;20056;-59
2023/10/03 03:15:45;;;;;;;32.57;16.87;;;;;;;;;;5067819;28;20098;-59
2023/10/03 03:18:12;;;;;;;37.57;18.33;;;;;;;;;;5067521;28;20048;-59
2023/10/03 03:20:42;;;;;;;35.87;18.50;;;;;;;;;;5068190;28;20150;-59
2023/10/03 03:23:10;;;;;;;33.63;17.53;;;;;;;;;;5068070;28;20406;-59
2023/10/03 03:25:37;;;;;;;35.00;18.03;;;;;;;;;;5067736;28;20158;-60
2023/10/03 03:28:15;;;;;;;34.63;17.80;;;;;;;;;;5067458;28;20052;-59
2023/10/03 03:30:57;;;;;;;38.57;18.93;;;;;;;;;;5067954;28;20118;-59
2023/10/03 03:33:27;;;;;;;35.80;19.00;;;;;;;;;;5067706;28;20040;-59
2023/10/03 03:35:53;;;;;;;38.03;18.30;;;;;;;;;;5067911;28;20049;-59
2023/10/03 03:38:20;;;;;;;39.03;18.83;;;;;;;;;;5067564;28;20052;-60
2023/10/03 03:40:47;;;;;;;34.10;18.80;;;;;;;;;;5067244;28;20051;-59
2023/10/03 03:43:16;;;;;;;40.40;19.40;;;;;;;;;;5067793;28;20087;-60
2023/10/03 03:45:42;;;;;;;33.13;17.00;;;;;;;;;;5068054;28;20569;-60
2023/10/03 03:48:09;;;;;;;37.03;19.07;;;;;;;;;;5067925;28;20067;-60
2023/10/03 03:50:35;;;;;;;40.93;18.43;;;;;;;;;;5067963;28;20048;-59
2023/10/03 03:53:02;;;;;;;37.43;18.00;;;;;;;;;;5066672;28;20144;-59
2023/10/03 03:55:29;;;;;;;35.47;17.47;;;;;;;;;;5067359;28;20087;-59
2023/10/03 03:57:59;;;;;;;37.03;17.83;;;;;;;;;;5067386;28;20502;-59
2023/10/03 04:00:28;;;;;;;35.43;16.80;;;;;;;;;;5067727;28;20044;-60
2023/10/03 04:02:57;;;;;;;35.57;17.93;;;;;;;;;;5067491;28;20053;-59
2023/10/03 04:05:30;;;;;;;35.67;18.83;;;;;;;;;;5067703;28;20044;-60
2023/10/03 04:07:57;;;;;;;35.58;17.42;;;;;;;;;;5067669;28;20052;-59
2023/10/03 04:10:23;;;;;;;32.07;16.90;;;;;;;;;;5069286;28;20052;-61
2023/10/03 04:12:49;;;;;;;36.50;17.87;;;;;;;;;;5071167;28;20074;-61
2023/10/03 04:15:16;;;;;;;33.70;16.57;;;;;;;;;;5070643;28;20044;-60
2023/10/03 04:17:42;;;;;;;35.87;17.43;;;;;;;;;;5071342;28;20045;-60
2023/10/03 04:22:44;;;;;;;39.30;17.27;;;;;;;;;;5070988;28;20570;-61
2023/10/03 04:25:13;;;;;;;37.10;17.53;;;;;;;;;;5071151;28;20460;-60
2023/10/03 04:27:39;;;;;;;37.00;15.97;;;;;;;;;;5070417;28;20561;-60
2023/10/03 04:30:05;;;;;;;31.93;16.33;;;;;;;;;;5070298;28;20049;-60
2023/10/03 04:32:32;;;;;;;35.40;17.23;;;;;;;;;;5071100;28;20055;-61
2023/10/03 04:34:58;;;;;;;34.43;15.97;;;;;;;;;;5071051;28;20083;-61
2023/10/03 04:37:24;;;;;;;33.27;16.40;;;;;;;;;;5070959;28;20339;-61
2023/10/03 04:39:50;;;;;;;34.53;16.27;;;;;;;;;;5071003;28;20470;-60
2023/10/03 04:42:16;;;;;;;34.77;16.13;;;;;;;;;;5070437;28;20044;-61
2023/10/03 04:44:42;;;;;;;32.50;16.10;;;;;;;;;;5070551;28;20041;-61
2023/10/03 04:47:11;;;;;;;27.70;15.70;;;;;;;;;;5070891;28;20487;-61
2023/10/03 04:49:38;;;;;;;29.43;15.77;;;;;;;;;;5070908;28;20555;-61
2023/10/03 04:52:07;;;;;;;30.63;14.83;;;;;;;;;;5070230;28;20049;-61
2023/10/03 04:54:33;;;;;;;30.80;14.10;;;;;;;;;;5070540;28;20048;-61
2023/10/03 04:56:59;;;;;;;28.57;13.47;;;;;;;;;;5070646;28;20432;-61
2023/10/03 04:59:25;;;;;;;27.17;13.13;;;;;;;;;;5070828;28;20040;-61
2023/10/03 05:01:51;;;;;;;28.43;12.20;;;;;;;;;;5070414;28;20135;-60
2023/10/03 05:04:18;;;;;;;27.77;13.73;;;;;;;;;;5069900;28;20037;-61
2023/10/03 05:06:47;;;;;;;24.53;12.77;;;;;;;;;;5070409;28;20041;-61
2023/10/03 05:09:13;;;;;;;32.40;11.83;;;;;;;;;;5070181;28;20048;-60
2023/10/03 05:11:39;;;;;;;31.30;13.03;;;;;;;;;;5070159;28;20048;-60
2023/10/03 05:14:05;;;;;;;28.10;12.50;;;;;;;;;;5070166;28;20678;-60
2023/10/03 05:16:31;;;;;;;27.93;11.83;;;;;;;;;;5070084;28;20049;-60
2023/10/03 05:18:57;;;;;;;25.83;12.33;;;;;;;;;;5069965;28;20078;-60
2023/10/03 05:21:23;;;;;;;30.33;12.30;;;;;;;;;;5070111;28;20041;-60
2023/10/03 05:23:49;;;;;;;29.13;11.83;;;;;;;;;;5069878;28;20078;-60
2023/10/03 05:26:25;;;;;;;25.07;12.53;;;;;;;;;;5069797;28;20099;-60
2023/10/03 05:28:55;;;;;;;29.03;13.90;;;;;;;;;;5069858;28;20117;-61
2023/10/03 05:31:23;;;;;;;31.07;12.07;;;;;;;;;;5069567;28;20060;-61
2023/10/03 05:33:48;;;;;;;22.33;11.07;;;;;;;;;;5069721;28;20097;-60
2023/10/03 05:36:22;;;;;;;25.03;10.37;;;;;;;;;;5069421;28;20044;-60
2023/10/03 05:38:48;;;;;;;26.27;11.40;;;;;;;;;;5068944;28;20530;-60
2023/10/03 05:41:23;;;;;;;26.50;11.70;;;;;;;;;;5069547;28;20080;-60
2023/10/03 05:43:52;;;;;;;31.03;10.70;;;;;;;;;;5069829;28;20082;-61
2023/10/03 05:46:18;;;;;;;26.40;10.27;;;;;;;;;;5069762;28;20447;-61
2023/10/03 05:48:45;;;;;;;19.53;10.03;;;;;;;;;;5068983;28;20075;-61
2023/10/03 05:51:12;;;;;;;22.50;10.67;;;;;;;;;;5069435;28;20059;-60
2023/10/03 05:53:41;;;;;;;18.90;9.67;;;;;;;;;;5069239;28;20483;-61
2023/10/03 05:56:10;;;;;;;29.70;9.67;;;;;;;;;;5069311;28;20052;-61
2023/10/03 05:58:37;;;;;;;26.93;8.53;;;;;;;;;;5069024;28;20048;-64
2023/10/03 06:01:04;;;;;;;21.83;9.40;;;;;;;;;;5068722;28;20094;-60
2023/10/03 06:03:30;;;;;;;17.00;8.17;;;;;;;;;;5069168;28;20048;-60
2023/10/03 06:05:56;;;;;;;23.77;8.57;;;;;;;;;;5069000;28;20431;-61
2023/10/03 06:08:22;;;;;;;20.87;8.13;;;;;;;;;;5068808;28;20127;-60
2023/10/03 06:10:51;;;;;;;23.20;7.60;;;;;;;;;;5068746;28;20040;-61
2023/10/03 06:13:17;;;;;;;16.97;6.03;;;;;;;;;;5068418;28;20131;-60
2023/10/03 06:15:43;;;;;;;15.23;6.27;;;;;;;;;;5067307;28;20140;-60
2023/10/03 06:18:09;;;;;;;19.57;6.13;;;;;;;;;;5068825;28;20399;-60
2023/10/03 06:20:35;;;;;;;20.93;6.97;;;;;;;;;;5068218;28;20053;-61
2023/10/03 06:23:02;;;;;;;11.30;4.60;;;;;;;;;;5069017;28;20059;-60
2023/10/03 06:25:29;;;;;;;13.67;4.87;;;;;;;;;;5068761;28;20087;-61
2023/10/03 06:27:55;;;;;;;19.40;5.27;;;;;;;;;;5067707;28;20429;-61
2023/10/03 06:30:21;;;;;;;17.57;5.43;;;;;;;;;;5068718;28;20505;-61
2023/10/03 06:32:47;;;;;;;16.73;6.07;;;;;;;;;;5068229;28;20044;-61
2023/10/03 06:35:12;;;;;;;16.80;5.90;;;;;;;;;;5068701;28;20048;-61
2023/10/03 06:37:38;;;;;;;22.17;6.17;;;;;;;;;;5068172;28;20045;-62
2023/10/03 06:40:06;;;;;;;18.00;6.10;;;;;;;;;;5068090;28;20353;-60
2023/10/03 06:42:34;;;;;;;16.03;6.23;;;;;;;;;;5068372;28;20873;-60
2023/10/03 06:45:00;;;;;;;16.30;5.77;;;;;;;;;;5068505;28;20086;-60
2023/10/03 06:47:26;;;;;;;13.33;6.40;;;;;;;;;;5068420;28;20056;-60
2023/10/03 06:49:52;;;;;;;13.77;5.37;;;;;;;;;;5068267;28;20045;-60
2023/10/03 06:52:18;;;;;;;14.87;5.60;;;;;;;;;;5067634;28;20068;-60
2023/10/03 06:54:44;;;;;;;20.57;5.60;;;;;;;;;;5067831;28;20040;-60
2023/10/03 06:57:10;;;;;;;18.27;5.43;;;;;;;;;;5068445;28;20410;-60
2023/10/03 06:59:36;;;;;;;15.83;5.27;;;;;;;;;;5068122;28;20102;-61
2023/10/03 07:02:04;;;;;;;17.97;6.20;;;;;;;;;;5068348;28;20052;-60
2023/10/03 07:04:30;;;;;;;14.27;5.20;;;;;;;;;;5067320;28;20115;-60
2023/10/03 07:06:56;;;;;;;14.50;5.47;;;;;;;;;;5067738;28;20055;-60
2023/10/03 07:09:22;;;;;;;13.77;4.97;;;;;;;;;;5068115;28;20048;-60
2023/10/03 07:11:48;;;;;;;13.47;4.90;;;;;;;;;;5067898;28;20041;-61
2023/10/03 07:14:15;;;;;;;12.77;5.27;;;;;;;;;;5067558;28;20068;-61
2023/10/03 07:16:41;;;;;;;15.27;5.10;;;;;;;;;;5068175;28;20489;-60
2023/10/03 07:19:10;;;;;;;11.80;4.03;;;;;;;;;;5068333;28;20391;-61
2023/10/03 07:21:37;;;;;;;11.67;4.70;;;;;;;;;;5067713;28;20480;-61
2023/10/03 07:24:04;;;;;;;13.73;5.37;;;;;;;;;;5067746;28;20063;-61
2023/10/03 07:26:30;;;;;;;16.17;5.20;;;;;;;;;;5067736;28;20176;-61
2023/10/03 07:28:58;;;;;;;17.70;6.10;;;;;;;;;;5067465;28;20098;-61
2023/10/03 07:31:24;;;;;;;16.57;6.43;;;;;;;;;;5067810;28;20044;-61
2023/10/03 07:33:52;;;;;;;19.53;5.97;;;;;;;;;;5068045;28;20445;-61
2023/10/03 07:36:18;;;;;;;14.73;5.27;;;;;;;;;;5067260;28;20506;-61
2023/10/03 07:38:48;;;;;;;14.43;6.30;;;;;;;;;;5067586;28;20099;-61
2023/10/03 07:41:16;;;;;;;29.17;7.40;;;;;;;;;;5068031;28;20041;-61
2023/10/03 07:43:47;;;;;;;20.70;5.67;;;;;;;;;;5067690;28;20486;-61
2023/10/03 07:46:19;;;;;;;15.60;6.33;;;;;;;;;;5071146;28;20060;-61
2023/10/03 07:48:45;;;;;;;12.50;5.60;;;;;;;;;;5071491;28;20083;-61
2023/10/03 07:51:17;;;;;;;15.70;5.40;;;;;;;;;;5071187;28;20059;-62
2023/10/03 07:53:43;;;;;;;16.30;5.00;;;;;;;;;;5071416;28;20048;-61
2023/10/03 07:56:16;;;;;;;14.73;4.97;;;;;;;;;;5071677;28;20048;-60
2023/10/03 07:58:42;;;;;;;13.10;4.18;;;;;;;;;;5071183;28;20048;-61
2023/10/03 08:01:08;;;;;;;11.30;5.13;;;;;;;;;;5071663;28;20051;-61
2023/10/03 08:03:34;;;;;;;17.70;5.80;;;;;;;;;;5071818;28;20062;-62
2023/10/03 08:06:00;;;;;;;16.23;6.33;;;;;;;;;;5070817;28;20537;-61
2023/10/03 08:08:26;;;;;;;18.20;7.03;;;;;;;;;;5071130;28;20491;-62
2023/10/03 08:10:52;;;;;;;20.33;6.83;;;;;;;;;;5070213;28;20052;-62
2023/10/03 08:13:18;;;;;;;21.33;8.00;;;;;;;;;;5070913;28;20075;-62
2023/10/03 08:15:44;;;;;;;18.77;6.40;;;;;;;;;;5071630;28;20040;-62
2023/10/03 08:18:17;;;;;;;13.73;6.50;;;;;;;;;;5070514;28;20522;-62
2023/10/03 08:20:43;;;;;;;15.30;5.80;;;;;;;;;;5071183;28;20048;-63
2023/10/03 08:23:09;;;;;;;17.87;6.23;;;;;;;;;;5071179;28;20055;-63
2023/10/03 08:25:35;;;;;;;25.67;8.03;;;;;;;;;;5070921;28;20048;-62
2023/10/03 08:28:08;;;;;;;19.90;7.17;;;;;;;;;;5070527;28;20040;-63
2023/10/03 08:30:35;;;;;;;18.23;6.83;;;;;;;;;;5070939;28;20633;-63
2023/10/03 08:33:05;;;;;;;19.80;8.67;;;;;;;;;;5071008;28;20090;-62
2023/10/03 08:35:37;;;;;;;16.13;7.13;;;;;;;;;;5070166;28;20045;-62
2023/10/03 08:38:06;;;;;;;20.75;7.97;;;;;;;;;;5068372;28;20057;-62
2023/10/03 08:40:36;;;;;;;27.93;7.70;;;;;;;;;;5069466;28;20482;-62
2023/10/03 08:43:05;;;;;;;15.67;4.53;;;;;;;;;;5069486;28;20052;-62
2023/10/03 08:45:35;;;;;;;13.60;5.00;;;;;;;;;;5070044;28;20049;-62
2023/10/03 08:48:05;;;;;;;20.33;5.40;;;;;;;;;;5069614;28;20494;-62
2023/10/03 08:50:34;;;;;;;15.17;4.40;;;;;;;;;;5068963;28;20105;-62
2023/10/03 08:53:13;;;;;;;17.50;4.07;;;;;;;;;;5069300;28;20052;-62
2023/10/03 08:55:43;;;;;;;14.97;3.47;;;;;;;;;;5068852;28;20041;-62
2023/10/03 08:58:13;;;;;;;11.83;3.27;;;;;;;;;;5069386;28;20131;-62
2023/10/03 09:00:41;;;;;;;13.50;3.30;;;;;;;;;;5069236;28;20082;-62
2023/10/03 09:03:11;;;;;;;11.60;2.70;;;;;;;;;;5068586;28;20052;-62
2023/10/03 09:05:41;;;;;;;6.53;2.60;;;;;;;;;;5068921;28;20041;-62
2023/10/03 09:08:10;;;;;;;13.40;2.57;;;;;;;;;;5069024;28;20048;-62
2023/10/03 09:10:53;;;;;;;11.53;1.93;;;;;;;;;;5068997;28;21528;-62
2023/10/03 09:13:25;;;;;;;7.73;2.23;;;;;;;;;;5068769;28;20501;-62
2023/10/03 09:15:59;;;;;;;10.87;1.43;;;;;;;;;;5068686;28;20453;-62
2023/10/03 09:18:25;;;;;;;11.20;1.77;;;;;;;;;;5068347;28;20457;-62
2023/10/03 09:20:52;;;;;;;7.20;1.40;;;;;;;;;;5068733;28;20048;-62
2023/10/03 09:23:18;;;;;;;7.50;1.20;;;;;;;;;;5068617;28;20106;-62
2023/10/03 09:25:55;;;;;;;4.73;1.30;;;;;;;;;;5068592;28;20044;-62
2023/10/03 09:28:27;;;;;;;12.43;1.10;;;;;;;;;;5067865;28;20045;-62
2023/10/03 09:30:55;;;;;;;9.50;1.40;;;;;;;;;;5068711;28;20465;-62
2023/10/03 09:33:24;;;;;;;6.40;1.00;;;;;;;;;;5068389;28;20549;-62
2023/10/03 09:35:56;;;;;;;6.63;0.97;;;;;;;;;;5068558;28;20113;-63
2023/10/03 09:38:33;;;;;;;6.55;1.10;;;;;;;;;;5032717;28;1040695;-62
2023/10/03 09:40:59;;;;;;;9.20;1.20;;;;;;;;;;5069548;28;20553;-62
2023/10/03 09:43:29;;;;;;;6.73;1.00;;;;;;;;;;5068953;28;20438;-63
2023/10/03 09:45:56;;;;;;;9.60;1.20;;;;;;;;;;5069241;28;20049;-63
2023/10/03 09:48:25;;;;;;;7.43;1.20;;;;;;;;;;5068975;28;20056;-63
2023/10/03 09:51:05;;;;;;;11.60;1.50;;;;;;;;;;5069308;28;20044;-63
2023/10/03 09:53:32;;;;;;;6.97;1.03;;;;;;;;;;5068698;28;20514;-63
2023/10/03 09:56:01;;;;;;;9.67;1.33;;;;;;;;;;5068835;28;20047;-63
2023/10/03 09:58:33;;;;;;;6.13;1.10;;;;;;;;;;5069410;28;20499;-63
2023/10/03 10:00:59;;;;;;;8.73;2.20;;;;;;;;;;5069098;28;20090;-63
2023/10/03 10:03:27;;;;;;;5.53;0.80;;;;;;;;;;5068912;28;20406;-63
2023/10/03 10:05:59;;;;;;;9.67;1.53;;;;;;;;;;5069087;28;20139;-63
2023/10/03 10:08:27;;;;;;;6.47;1.55;;;;;;;;;;5068141;28;20131;-62
2023/10/03 10:11:07;;;;;;;5.83;0.90;;;;;;;;;;5068767;28;20418;-63
2023/10/03 10:13:36;;;;;;;10.17;1.03;;;;;;;;;;5068702;28;20051;-62
2023/10/03 10:16:13;;;;;;;6.50;0.90;;;;;;;;;;5068372;28;20542;-63
2023/10/03 10:18:45;;;;;;;3.53;0.90;;;;;;;;;;5068482;28;20597;-62
2023/10/03 10:21:20;;;;;;;3.63;0.80;;;;;;;;;;5068383;28;20139;-63
2023/10/03 10:24:06;;;;;;;8.63;1.63;;;;;;;;;;5068533;28;20507;-62
2023/10/03 10:26:34;;;;;;;3.23;0.73;;;;;;;;;;5068457;28;20049;-62
2023/10/03 10:29:11;;;;;;;11.10;1.20;;;;;;;;;;5068032;28;20510;-63
2023/10/03 10:31:44;;;;;;;6.13;0.90;;;;;;;;;;5068589;28;20048;-63
2023/10/03 10:34:22;;;;;;;5.95;0.80;;;;;;;;;;5068078;28;20041;-63
2023/10/03 10:37:14;;;;;;;5.23;1.53;;;;;;;;;;5068352;28;20074;-61
2023/10/03 10:39:56;;;;;;;2.23;0.80;;;;;;;;;;5068132;28;20060;-64
2023/10/03 10:42:26;;;;;;;3.00;0.70;;;;;;;;;;5067980;28;20079;-64
2023/10/03 10:45:16;;;;;;;5.83;0.83;;;;;;;;;;5068409;28;20158;-64
2023/10/03 10:47:46;;;;;;;4.63;0.97;;;;;;;;;;5064571;28;20167;-64
2023/10/03 10:50:12;;;;;;;3.33;1.00;;;;;;;;;;5068240;28;20174;-63
2023/10/03 10:52:56;;;;;;;7.80;1.17;;;;;;;;;;5068363;28;20090;-64
2023/10/03 10:55:22;;;;;;;5.78;1.70;;;;;;;;;;5068137;28;20063;-63
2023/10/03 10:57:48;;;;;;;5.67;1.00;;;;;;;;;;5067687;28;20048;-64
2023/10/03 11:00:21;;;;;;;5.90;1.30;;;;;;;;;;5068026;28;20179;-64
2023/10/03 11:02:47;;;;;;;3.40;1.23;;;;;;;;;;5068077;28;20123;-64
2023/10/03 11:05:13;;;;;;;6.67;1.10;;;;;;;;;;5067622;28;20060;-64
2023/10/03 11:07:49;;;;;;;6.93;1.60;;;;;;;;;;5068107;28;20473;-63
2023/10/03 11:10:17;;;;;;;10.97;1.63;;;;;;;;;;5068226;28;20048;-63
2023/10/03 11:12:43;;;;;;;3.87;1.07;;;;;;;;;;5067795;28;20052;-63
2023/10/03 11:15:12;;;;;;;10.47;1.40;;;;;;;;;;5067637;28;20379;-64
2023/10/03 11:17:38;;;;;;;7.17;1.43;;;;;;;;;;5067610;28;20040;-63
2023/10/03 11:20:08;;;;;;;6.47;1.30;;;;;;;;;;5067344;28;20051;-63
2023/10/03 11:22:37;;;;;;;4.10;1.30;;;;;;;;;;5067981;28;20040;-63
2023/10/03 11:25:09;;;;;;;3.83;1.23;;;;;;;;;;5067903;28;20037;-63
2023/10/03 11:27:36;;;;;;;6.13;1.07;;;;;;;;;;5067607;28;20051;-63
2023/10/03 11:30:14;;;;;;;6.47;1.40;;;;;;;;;;5067770;28;20468;-63
2023/10/03 11:32:40;;;;;;;5.93;1.10;;;;;;;;;;5067288;28;20041;-63
2023/10/03 11:35:16;;;;;;;9.93;1.13;;;;;;;;;;5067444;28;20048;-63
2023/10/03 11:37:46;;;;;;;5.70;1.50;;;;;;;;;;5067309;28;20063;-63
2023/10/03 11:40:16;;;;;;;5.10;1.10;;;;;;;;;;5067712;28;20067;-63
2023/10/03 11:42:45;;;;;;;9.43;1.40;;;;;;;;;;5067333;28;20056;-63
2023/10/03 11:45:15;;;;;;;7.00;1.67;;;;;;;;;;5067165;28;20094;-63
2023/10/03 11:47:41;;;;;;;11.13;2.10;;;;;;;;;;5066160;28;20397;-64
2023/10/03 11:50:09;;;;;;;8.73;1.67;;;;;;;;;;5066321;28;20048;-64
2023/10/03 11:52:37;;;;;;;10.93;2.00;;;;;;;;;;5067475;28;20052;-64
2023/10/03 11:55:03;;;;;;;11.33;2.17;;;;;;;;;;5067483;28;20080;-64
2023/10/03 11:57:29;;;;;;;7.67;1.90;;;;;;;;;;5066883;28;20396;-64
2023/10/03 11:59:55;;;;;;;7.40;2.17;;;;;;;;;;5067561;28;20066;-64
2023/10/03 12:02:22;;;;;;;12.80;2.20;;;;;;;;;;5067590;28;20414;-64
2023/10/03 12:04:50;;;;;;;10.10;2.77;;;;;;;;;;5066957;28;20453;-64
2023/10/03 12:07:16;;;;;;;13.10;2.50;;;;;;;;;;5067531;28;20048;-63
2023/10/03 12:09:43;;;;;;;10.03;2.33;;;;;;;;;;5067506;28;20495;-63
2023/10/03 12:12:10;;;;;;;8.53;2.00;;;;;;;;;;5067386;28;20113;-63
2023/10/03 12:14:36;;;;;;;7.00;2.27;;;;;;;;;;5066857;28;20048;-63
2023/10/03 12:17:02;;;;;;;8.17;2.00;;;;;;;;;;5067419;28;20087;-63
2023/10/03 12:19:29;;;;;;;9.73;2.50;;;;;;;;;;5067037;28;20068;-63
2023/10/03 12:21:55;;;;;;;7.30;2.47;;;;;;;;;;5067438;28;20628;-63
2023/10/03 12:24:21;;;;;;;11.27;2.10;;;;;;;;;;5067253;28;20453;-63
2023/10/03 12:26:48;;;;;;;26.80;2.80;;;;;;;;;;5067066;28;20048;-62
2023/10/03 12:29:13;;;;;;;17.40;2.87;;;;;;;;;;5066647;28;20056;-62
2023/10/03 12:31:39;;;;;;;17.00;3.00;;;;;;;;;;5069468;28;20048;-62
2023/10/03 12:34:06;;;;;;;10.07;2.40;;;;;;;;;;5070840;28;20080;-63
2023/10/03 12:36:32;;;;;;;12.53;3.20;;;;;;;;;;5070710;28;20040;-62
2023/10/03 12:39:05;;;;;;;18.13;3.83;;;;;;;;;;5070600;28;20053;-62
2023/10/03 12:41:31;;;;;;;17.70;4.32;;;;;;;;;;5070486;28;20040;-62
2023/10/03 12:43:57;;;;;;;15.20;3.67;;;;;;;;;;5070093;28;20059;-63
2023/10/03 12:46:24;;;;;;;28.50;4.97;;;;;;;;;;5070612;28;20489;-63
2023/10/03 12:48:50;;;;;;;16.40;4.13;;;;;;;;;;5070233;28;20048;-63
2023/10/03 12:51:15;;;;;;;25.47;5.43;;;;;;;;;;5070425;28;20044;-63
2023/10/03 12:53:42;;;;;;;12.60;3.10;;;;;;;;;;5070331;28;20441;-63
2023/10/03 12:56:11;;;;;;;13.13;3.23;;;;;;;;;;5068914;28;20131;-63
2023/10/03 12:58:38;;;;;;;11.77;3.03;;;;;;;;;;5070514;28;20474;-63
2023/10/03 13:01:04;;;;;;;13.63;3.23;;;;;;;;;;5070443;28;20041;-64
2023/10/03 13:03:32;;;;;;;12.10;2.93;;;;;;;;;;5070280;28;20442;-63
2023/10/03 13:05:59;;;;;;;9.27;3.27;;;;;;;;;;5069792;28;20515;-64
2023/10/03 13:08:25;;;;;;;10.00;2.23;;;;;;;;;;5070292;28;20409;-64
2023/10/03 13:10:53;;;;;;;9.70;2.50;;;;;;;;;;5069929;28;20068;-64
2023/10/03 13:13:19;;;;;;;10.37;2.90;;;;;;;;;;5070212;28;20048;-64
2023/10/03 13:15:46;;;;;;;10.00;2.70;;;;;;;;;;5070081;28;20076;-62
2023/10/03 13:18:13;;;;;;;9.77;2.47;;;;;;;;;;5069406;28;20055;-63
2023/10/03 13:20:42;;;;;;;11.90;2.37;;;;;;;;;;5069837;28;20091;-63
2023/10/03 13:23:09;;;;;;;17.37;2.90;;;;;;;;;;5069835;28;20047;-63
2023/10/03 13:25:37;;;;;;;14.00;2.50;;;;;;;;;;5069291;28;20079;-63
2023/10/03 13:28:07;;;;;;;12.43;2.40;;;;;;;;;;5069815;28;20044;-63
2023/10/03 13:30:35;;;;;;;15.73;2.53;;;;;;;;;;5068559;28;20075;-63
2023/10/03 13:33:01;;;;;;;7.40;2.27;;;;;;;;;;5069879;28;20051;-63
2023/10/03 13:35:27;;;;;;;14.67;2.97;;;;;;;;;;5069555;28;20041;-63
2023/10/03 13:37:54;;;;;;;7.90;2.20;;;;;;;;;;5069121;28;20068;-64
2023/10/03 13:40:21;;;;;;;11.33;2.80;;;;;;;;;;5069293;28;20045;-63
2023/10/03 13:42:48;;;;;;;15.20;2.67;;;;;;;;;;5068279;28;20106;-63
2023/10/03 13:45:14;;;;;;;14.77;2.50;;;;;;;;;;5069415;28;20471;-63
2023/10/03 13:47:41;;;;;;;12.27;2.13;;;;;;;;;;5069330;28;20556;-63
2023/10/03 13:50:09;;;;;;;11.70;2.40;;;;;;;;;;5069072;28;20056;-63
2023/10/03 13:52:37;;;;;;;11.77;2.93;;;;;;;;;;5069432;28;20115;-63
2023/10/03 13:55:06;;;;;;;8.37;2.20;;;;;;;;;;5069208;28;20526;-62
2023/10/03 13:57:32;;;;;;;8.37;2.17;;;;;;;;;;5068670;28;20127;-62
2023/10/03 13:59:58;;;;;;;8.17;2.40;;;;;;;;;;5068881;28;20044;-62
2023/10/03 14:02:24;;;;;;;9.80;2.07;;;;;;;;;;5069330;28;20040;-63
2023/10/03 14:04:50;;;;;;;13.23;2.63;;;;;;;;;;5068427;28;20071;-62
2023/10/03 14:07:16;;;;;;;10.10;4.07;;;;;;;;;;5069099;28;20426;-62
2023/10/03 14:09:43;;;;;;;12.93;2.70;;;;;;;;;;5068988;28;20428;-61
2023/10/03 14:12:09;;;;;;;15.27;3.17;;;;;;;;;;5068854;28;20041;-61
2023/10/03 14:14:35;;;;;;;7.87;2.23;;;;;;;;;;5068317;28;20048;-61
2023/10/03 14:17:01;;;;;;;11.60;2.77;;;;;;;;;;5069038;28;20051;-61
2023/10/03 14:19:28;;;;;;;7.70;1.93;;;;;;;;;;5068816;28;20051;-62
2023/10/03 14:21:54;;;;;;;12.13;1.80;;;;;;;;;;5068088;28;20036;-63
2023/10/03 14:24:20;;;;;;;10.23;2.20;;;;;;;;;;5068651;28;20056;-63
2023/10/03 14:26:46;;;;;;;6.97;1.40;;;;;;;;;;5069078;28;20048;-62
2023/10/03 14:29:12;;;;;;;10.03;1.97;;;;;;;;;;5068119;28;20149;-63
2023/10/03 14:31:38;;;;;;;5.70;1.43;;;;;;;;;;5068154;28;20048;-63
2023/10/03 14:34:05;;;;;;;4.87;2.00;;;;;;;;;;5068804;28;20036;-62
2023/10/03 14:36:32;;;;;;;8.97;1.70;;;;;;;;;;5068192;28;20056;-63
2023/10/03 14:38:58;;;;;;;10.33;2.17;;;;;;;;;;5068572;28;20458;-62